Marlboro, New York
Current Conditions -  °F | °C
As of 7:53 PM on Wednesday 17 Dec 2014 (Local Time) from KPOU Reporting Station
Overcast Overcast  
Wind Chill: 38°   Ceiling: 4600
Heat Index: 43°   Visibility: 10mi
Dew Point: 31°   Wind: 9mph
Humidity: 62%   Direction: 260°W
Pressure: 29.85"   Gusts: NA
Location:  41.61°N, 73.97°W
Report Text: KPOU 180053Z AUTO 26008KT 10SM OVC046 06/M01 A2985 RMK AO2 SLP107 T00611006 TSNO
Loading
Personal Weather Stations






























Interactive Weather Map New forecast layout! Learn more

10-Day Weather Forecast

Advertisements
Track Severe Weather on mobile